createdAt,value
2023-04-07T00:00:34.500Z,20.40
2023-04-07T00:03:22.159Z,20.80
2023-04-07T00:05:51.535Z,18.20
2023-04-07T00:08:20.124Z,18.60
2023-04-07T00:10:48.830Z,19.60
2023-04-07T00:13:18.009Z,13.20
2023-04-07T00:15:46.526Z,18.90
2023-04-07T00:18:15.299Z,18.70
2023-04-07T00:20:43.932Z,19.60
2023-04-07T00:23:12.392Z,20.00
2023-04-07T00:25:41.158Z,17.50
2023-04-07T00:28:09.782Z,17.50
2023-04-07T00:30:38.218Z,18.10
2023-04-07T00:33:09.689Z,16.30
2023-04-07T00:35:39.299Z,18.20
2023-04-07T00:38:08.103Z,17.10
2023-04-07T00:40:36.819Z,18.40
2023-04-07T00:43:06.312Z,17.70
2023-04-07T00:45:34.802Z,18.30
2023-04-07T00:48:03.653Z,20.60
2023-04-07T00:50:32.925Z,18.40
2023-04-07T00:53:02.924Z,16.60
2023-04-07T00:55:31.712Z,16.90
2023-04-07T00:58:01.139Z,18.30
2023-04-07T01:00:32.030Z,18.30
2023-04-07T01:03:10.131Z,18.50
2023-04-07T01:06:13.662Z,16.40
2023-04-07T01:09:08.597Z,17.80
2023-04-07T01:11:59.629Z,17.20
2023-04-07T01:14:34.501Z,16.20
2023-04-07T01:17:13.753Z,16.80
2023-04-07T01:19:49.504Z,17.40
2023-04-07T01:22:27.873Z,16.40
2023-04-07T01:25:19.114Z,18.80
2023-04-07T01:28:06.996Z,16.60
2023-04-07T01:30:40.560Z,16.20
2023-04-07T01:33:11.569Z,16.50
2023-04-07T01:35:42.122Z,15.50
2023-04-07T01:38:12.566Z,15.90
2023-04-07T01:43:11.407Z,14.70
2023-04-07T01:45:41.253Z,18.10
2023-04-07T01:48:11.061Z,16.40
2023-04-07T01:50:42.068Z,15.40
2023-04-07T01:53:11.574Z,17.10
2023-04-07T01:55:40.133Z,18.60
2023-04-07T01:58:11.302Z,19.60
2023-04-07T02:00:43.754Z,19.40
2023-04-07T02:03:29.133Z,19.50
2023-04-07T02:06:03.216Z,18.80
2023-04-07T02:08:34.131Z,19.30
2023-04-07T02:11:05.143Z,17.90
2023-04-07T02:13:38.424Z,17.20
2023-04-07T02:16:08.828Z,18.50
2023-04-07T02:18:38.908Z,18.20
2023-04-07T02:21:09.513Z,17.30
2023-04-07T02:23:38.157Z,15.90
2023-04-07T02:26:08.427Z,17.70
2023-04-07T02:28:37.559Z,17.90
2023-04-07T02:31:06.436Z,18.80
2023-04-07T02:33:35.046Z,19.00
2023-04-07T02:36:04.023Z,18.60
2023-04-07T02:38:32.990Z,17.60
2023-04-07T02:41:01.973Z,17.10
2023-04-07T02:43:32.032Z,25.90
2023-04-07T02:46:00.952Z,22.40
2023-04-07T02:48:30.279Z,24.20
2023-04-07T02:50:59.703Z,21.70
2023-04-07T02:53:28.154Z,20.10
2023-04-07T02:55:56.927Z,19.50
2023-04-07T02:58:25.864Z,20.50
2023-04-07T03:00:54.421Z,19.40
2023-04-07T03:03:26.774Z,19.20
2023-04-07T03:06:24.475Z,20.10
2023-04-07T03:09:02.199Z,28.50
2023-04-07T03:11:30.674Z,22.70
2023-04-07T03:13:59.799Z,24.90
2023-04-07T03:16:30.147Z,17.10
2023-04-07T03:19:10.267Z,24.20
2023-04-07T03:21:42.990Z,27.90
2023-04-07T03:24:11.556Z,28.20
2023-04-07T03:26:40.381Z,22.60
2023-04-07T03:29:17.390Z,25.40
2023-04-07T03:31:45.876Z,25.80
2023-04-07T03:34:15.732Z,20.80
2023-04-07T03:36:44.981Z,26.50
2023-04-07T03:39:13.648Z,27.40
2023-04-07T03:41:42.394Z,28.50
2023-04-07T03:44:12.248Z,23.30
2023-04-07T03:46:42.045Z,22.60
2023-04-07T03:49:11.571Z,23.20
2023-04-07T03:51:40.684Z,22.60
2023-04-07T03:54:13.036Z,23.60
2023-04-07T03:56:44.095Z,23.10
2023-04-07T03:59:12.883Z,23.70
2023-04-07T04:01:54.396Z,23.20
2023-04-07T04:04:24.846Z,22.40
2023-04-07T04:06:53.752Z,24.70
2023-04-07T04:09:36.512Z,24.50
2023-04-07T04:14:34.798Z,24.50
2023-04-07T04:17:05.495Z,23.20
2023-04-07T04:19:46.753Z,24.10
2023-04-07T04:22:29.253Z,24.90
2023-04-07T04:24:59.887Z,26.60
2023-04-07T04:27:29.127Z,27.30
2023-04-07T04:30:06.761Z,27.40
2023-04-07T04:32:42.313Z,24.90
2023-04-07T04:35:12.426Z,19.30
2023-04-07T04:37:48.921Z,29.70
2023-04-07T04:40:18.612Z,29.40
2023-04-07T04:42:47.995Z,28.10
2023-04-07T04:45:17.646Z,28.00
2023-04-07T04:47:49.251Z,29.40
2023-04-07T04:50:18.578Z,33.10
2023-04-07T04:52:47.796Z,27.70
2023-04-07T04:55:22.744Z,26.20
2023-04-07T05:00:27.146Z,25.00
2023-04-07T05:03:00.057Z,26.00
2023-04-07T05:05:30.048Z,31.00
2023-04-07T05:07:58.595Z,30.40
2023-04-07T05:12:58.067Z,27.20
2023-04-07T05:15:26.577Z,27.50
2023-04-07T05:17:55.752Z,29.10
2023-04-07T05:20:28.221Z,28.00
2023-04-07T05:22:56.823Z,28.60
2023-04-07T05:25:29.417Z,27.50
2023-04-07T05:28:02.637Z,27.80
2023-04-07T05:30:31.698Z,27.90
2023-04-07T05:33:00.498Z,26.30
2023-04-07T05:35:39.745Z,27.50
2023-04-07T05:38:08.335Z,26.80
2023-04-07T05:40:37.744Z,24.30
2023-04-07T05:43:09.072Z,25.80
2023-04-07T05:45:37.735Z,25.10
2023-04-07T05:48:07.041Z,18.80
2023-04-07T05:50:42.145Z,25.40
2023-04-07T05:53:13.445Z,25.50
2023-04-07T05:55:44.444Z,24.60
2023-04-07T05:58:17.809Z,25.40
2023-04-07T06:00:50.611Z,29.20
2023-04-07T06:03:19.260Z,23.90
2023-04-07T06:05:59.894Z,25.30
2023-04-07T06:08:28.469Z,28.80
2023-04-07T06:10:58.028Z,25.90
2023-04-07T06:13:27.593Z,25.70
2023-04-07T06:15:57.058Z,24.60
2023-04-07T06:18:25.805Z,28.00
2023-04-07T06:20:55.052Z,26.30
2023-04-07T06:23:23.823Z,27.80
2023-04-07T06:25:53.553Z,29.60
2023-04-07T06:28:23.077Z,31.60
2023-04-07T06:30:51.825Z,30.50
2023-04-07T06:33:26.274Z,31.20
2023-04-07T06:35:56.760Z,31.80
2023-04-07T06:40:53.970Z,29.30
2023-04-07T06:43:22.630Z,45.90
2023-04-07T06:46:02.655Z,28.00
2023-04-07T06:48:31.598Z,26.70
2023-04-07T06:51:00.057Z,25.90
2023-04-07T06:53:28.880Z,25.60
2023-04-07T06:56:11.005Z,26.70
2023-04-07T06:58:40.193Z,29.30
2023-04-07T07:01:08.973Z,17.20
2023-04-07T07:03:37.488Z,22.40
2023-04-07T07:06:06.955Z,22.70
2023-04-07T07:08:36.190Z,22.30
2023-04-07T07:11:04.717Z,21.70
2023-04-07T07:13:33.327Z,20.60
2023-04-07T07:16:02.851Z,21.50
2023-04-07T07:18:31.868Z,20.10
2023-04-07T07:21:00.770Z,20.30
2023-04-07T07:23:29.884Z,20.30
2023-04-07T07:25:58.351Z,21.00
2023-04-07T07:28:27.372Z,18.60
2023-04-07T07:30:56.432Z,20.40
2023-04-07T07:33:25.110Z,21.20
2023-04-07T07:35:53.820Z,25.50
2023-04-07T07:38:23.097Z,20.20
2023-04-07T07:40:52.053Z,19.80
2023-04-07T07:43:20.877Z,19.90
2023-04-07T07:45:49.777Z,16.50
2023-04-07T07:48:18.600Z,14.70
2023-04-07T07:50:47.906Z,46.20
2023-04-07T07:53:17.054Z,17.00
2023-04-07T07:55:48.174Z,15.90
2023-04-07T07:58:17.145Z,17.10
2023-04-07T08:00:46.062Z,17.50
2023-04-07T08:03:18.285Z,20.70
2023-04-07T08:05:49.318Z,17.60
2023-04-07T08:08:20.143Z,20.70
2023-04-07T08:10:52.500Z,18.20
2023-04-07T08:13:21.776Z,20.50
2023-04-07T08:15:51.077Z,24.20
2023-04-07T08:18:19.703Z,18.70
2023-04-07T08:20:48.465Z,19.20
2023-04-07T08:23:17.317Z,19.60
2023-04-07T08:25:46.164Z,36.20
2023-04-07T08:28:15.264Z,46.90
2023-04-07T08:30:44.146Z,46.10
2023-04-07T08:33:12.597Z,21.80
2023-04-07T08:35:41.392Z,29.50
2023-04-07T08:38:10.247Z,40.40
2023-04-07T08:40:38.725Z,17.60
2023-04-07T08:43:13.200Z,10.70
2023-04-07T08:45:42.466Z,12.80
2023-04-07T08:48:19.261Z,16.30
2023-04-07T08:50:53.111Z,12.40
2023-04-07T08:53:28.628Z,13.40
2023-04-07T08:55:58.514Z,12.60
2023-04-07T08:58:27.671Z,14.10
2023-04-07T09:00:56.775Z,13.00
2023-04-07T09:03:38.975Z,9.10
2023-04-07T09:06:22.398Z,13.80
2023-04-07T09:09:01.828Z,12.30
2023-04-07T09:11:34.455Z,14.00
2023-04-07T09:14:03.373Z,13.80
2023-04-07T09:16:32.392Z,13.50
2023-04-07T09:19:01.176Z,17.40
2023-04-07T09:21:51.768Z,24.40
2023-04-07T09:24:26.532Z,15.00
2023-04-07T09:27:15.247Z,16.30
2023-04-07T09:29:47.282Z,16.50
2023-04-07T09:32:48.494Z,14.70
2023-04-07T09:35:17.100Z,17.30
2023-04-07T09:38:02.231Z,16.60
2023-04-07T09:40:31.010Z,14.00
2023-04-07T09:43:00.656Z,15.80
2023-04-07T09:45:35.776Z,39.30
2023-04-07T09:48:23.134Z,16.30
2023-04-07T09:50:52.804Z,15.00
2023-04-07T09:53:23.432Z,16.40
2023-04-07T09:55:53.234Z,15.30
2023-04-07T09:58:22.530Z,15.20
2023-04-07T10:00:51.283Z,14.50
2023-04-07T10:03:19.908Z,13.20
2023-04-07T10:05:49.959Z,14.80
2023-04-07T10:08:19.159Z,14.10
2023-04-07T10:10:50.117Z,14.10
2023-04-07T10:13:20.167Z,25.20
2023-04-07T10:18:21.551Z,21.00
2023-04-07T10:20:52.629Z,17.70
2023-04-07T10:23:49.817Z,22.50
2023-04-07T10:26:26.675Z,14.70
2023-04-07T10:29:01.104Z,15.80
2023-04-07T10:31:31.115Z,27.10
2023-04-07T10:33:59.717Z,21.10
2023-04-07T10:36:29.603Z,23.40
2023-04-07T10:41:38.782Z,13.60
2023-04-07T10:44:09.075Z,12.80
2023-04-07T10:47:04.691Z,18.90
2023-04-07T10:49:35.066Z,24.80
2023-04-07T10:54:41.787Z,99.50
2023-04-07T10:57:17.745Z,39.90
2023-04-07T11:00:11.735Z,51.90
2023-04-07T11:02:41.371Z,81.40
2023-04-07T11:05:21.856Z,67.10
2023-04-07T11:07:56.224Z,46.10
2023-04-07T11:10:25.853Z,20.60
2023-04-07T11:13:06.948Z,22.90
2023-04-07T11:15:40.288Z,18.60
2023-04-07T11:18:11.682Z,15.50
2023-04-07T11:20:48.333Z,12.80
2023-04-07T11:23:18.889Z,32.20
2023-04-07T11:25:49.332Z,34.20
2023-04-07T11:28:18.488Z,43.60
2023-04-07T11:30:53.105Z,48.10
2023-04-07T11:33:24.196Z,16.30
2023-04-07T11:36:16.958Z,15.40
2023-04-07T11:38:58.129Z,14.70
2023-04-07T11:41:29.044Z,14.10
2023-04-07T11:44:08.750Z,15.40
2023-04-07T11:46:38.755Z,13.80
2023-04-07T11:49:15.865Z,14.40
2023-04-07T11:51:45.682Z,28.80
2023-04-07T11:54:14.338Z,29.20
2023-04-07T11:56:48.305Z,52.70
2023-04-07T11:59:25.763Z,34.80
2023-04-07T12:01:57.473Z,19.90
2023-04-07T12:04:26.913Z,20.20
2023-04-07T12:06:55.834Z,25.60
2023-04-07T12:09:38.217Z,16.10
2023-04-07T12:12:08.789Z,17.60
2023-04-07T12:14:37.459Z,18.10
2023-04-07T12:17:07.943Z,20.60
2023-04-07T12:19:37.008Z,24.60
2023-04-07T12:22:06.228Z,29.80
2023-04-07T12:24:34.726Z,18.00
2023-04-07T12:27:04.407Z,25.40
2023-04-07T12:29:34.364Z,8.90
2023-04-07T12:32:03.460Z,17.30
2023-04-07T12:34:32.707Z,43.70
2023-04-07T12:37:01.599Z,37.40
2023-04-07T12:39:30.222Z,18.60
2023-04-07T12:42:00.096Z,17.60
2023-04-07T12:44:28.671Z,32.90
2023-04-07T12:46:57.291Z,19.80
2023-04-07T12:49:26.557Z,37.40
2023-04-07T12:51:55.380Z,22.40
2023-04-07T12:54:24.310Z,22.20
2023-04-07T12:56:53.444Z,18.70
2023-04-07T12:59:22.365Z,14.30
2023-04-07T13:01:51.883Z,15.50
2023-04-07T13:04:20.831Z,12.00
2023-04-07T13:06:49.871Z,17.20
2023-04-07T13:09:18.567Z,19.10
2023-04-07T13:11:47.454Z,29.80
2023-04-07T13:14:16.218Z,41.90
2023-04-07T13:16:45.135Z,26.10
2023-04-07T13:19:14.468Z,14.90
2023-04-07T13:21:46.613Z,26.60
2023-04-07T13:24:16.994Z,23.30
2023-04-07T13:26:45.411Z,12.00
2023-04-07T13:29:13.858Z,8.70
2023-04-07T13:31:43.352Z,11.20
2023-04-07T13:34:12.324Z,19.60
2023-04-07T13:36:41.722Z,12.10
2023-04-07T13:39:11.067Z,12.50
2023-04-07T13:41:39.638Z,10.10
2023-04-07T13:44:08.120Z,25.20
2023-04-07T13:46:37.234Z,16.60
2023-04-07T13:49:06.818Z,10.40
2023-04-07T13:51:35.363Z,17.50
2023-04-07T13:54:04.696Z,19.40
2023-04-07T13:56:35.724Z,13.90
2023-04-07T13:59:08.229Z,9.90
2023-04-07T14:01:39.429Z,43.70
2023-04-07T14:04:09.400Z,16.50
2023-04-07T14:09:07.267Z,52.50
2023-04-07T14:11:37.083Z,37.80
2023-04-07T14:14:06.946Z,22.70
2023-04-07T14:16:35.750Z,24.70
2023-04-07T14:19:05.165Z,17.20
2023-04-07T14:21:34.094Z,13.20
2023-04-07T14:24:02.583Z,15.10
2023-04-07T14:26:32.674Z,17.40
2023-04-07T14:29:01.990Z,15.90
2023-04-07T14:31:30.500Z,11.70
2023-04-07T14:33:59.566Z,10.20
2023-04-07T14:36:31.898Z,12.90
2023-04-07T14:39:01.536Z,10.60
2023-04-07T14:41:30.237Z,11.30
2023-04-07T14:43:59.538Z,12.10
2023-04-07T14:46:28.253Z,11.50
2023-04-07T14:48:58.794Z,26.80
2023-04-07T14:51:27.877Z,15.10
2023-04-07T14:53:58.174Z,13.60
2023-04-07T14:56:26.718Z,18.70
2023-04-07T14:58:55.334Z,14.50
2023-04-07T15:01:24.152Z,16.90
2023-04-07T15:03:53.753Z,11.60
2023-04-07T15:06:23.854Z,15.70
2023-04-07T15:08:52.957Z,11.00
2023-04-07T15:11:22.155Z,21.30
2023-04-07T15:13:51.280Z,18.20
2023-04-07T15:16:21.012Z,35.40
2023-04-07T15:18:51.265Z,16.00
2023-04-07T15:21:22.222Z,24.10
2023-04-07T15:23:52.087Z,16.70
2023-04-07T15:26:21.442Z,23.00
2023-04-07T15:28:50.226Z,17.40
2023-04-07T15:31:21.716Z,15.50
2023-04-07T15:33:51.417Z,12.70
2023-04-07T15:36:20.755Z,11.60
2023-04-07T15:38:49.334Z,22.00
2023-04-07T15:41:18.378Z,16.90
2023-04-07T15:43:47.750Z,20.60
2023-04-07T15:46:16.554Z,24.10
2023-04-07T15:48:48.385Z,21.90
2023-04-07T15:51:17.727Z,22.90
2023-04-07T15:53:48.639Z,29.90
2023-04-07T15:56:17.991Z,19.00
2023-04-07T15:58:53.221Z,31.00
2023-04-07T16:01:33.107Z,22.20
2023-04-07T16:05:11.996Z,28.40
2023-04-07T16:07:34.399Z,21.80
2023-04-07T16:10:04.178Z,29.80
2023-04-07T16:12:34.636Z,31.30
2023-04-07T16:15:04.024Z,31.30
2023-04-07T16:17:32.659Z,22.00
2023-04-07T16:20:01.294Z,25.80
2023-04-07T16:22:30.346Z,20.90
2023-04-07T16:29:26.199Z,77.10
2023-04-07T16:31:55.014Z,29.10
2023-04-07T16:34:23.950Z,24.20
2023-04-07T16:36:52.833Z,24.70
2023-04-07T16:39:23.471Z,36.30
2023-04-07T16:41:53.946Z,37.00
2023-04-07T16:44:23.325Z,27.10
2023-04-07T16:46:53.146Z,22.30
2023-04-07T16:51:51.022Z,25.70
2023-04-07T16:54:19.526Z,27.10
2023-04-07T16:56:50.096Z,27.60
2023-04-07T16:59:18.732Z,24.80
2023-04-07T17:01:47.339Z,23.80
2023-04-07T17:04:26.062Z,23.20
2023-04-07T17:07:13.679Z,26.70
2023-04-07T17:09:59.038Z,26.50
2023-04-07T17:12:49.033Z,38.90
2023-04-07T17:15:46.737Z,42.70
2023-04-07T17:18:40.026Z,29.40
2023-04-07T17:21:30.456Z,22.90
2023-04-07T17:24:24.032Z,63.60
2023-04-07T17:27:16.298Z,32.60
2023-04-07T17:30:01.536Z,38.80
2023-04-07T17:33:01.804Z,41.80
2023-04-07T17:36:01.219Z,33.70
2023-04-07T17:38:52.300Z,29.20
2023-04-07T17:41:45.237Z,28.70
2023-04-07T17:44:25.318Z,23.90
2023-04-07T17:49:27.911Z,24.70
2023-04-07T17:51:56.905Z,24.30
2023-04-07T17:54:25.422Z,25.30
2023-04-07T17:56:54.999Z,22.00
2023-04-07T17:59:24.231Z,24.90
2023-04-07T18:01:52.824Z,43.40
2023-04-07T18:04:22.917Z,36.90
2023-04-07T18:06:51.888Z,42.70
2023-04-07T18:09:21.001Z,52.20
2023-04-07T18:11:51.310Z,20.70
2023-04-07T18:14:19.914Z,20.10
2023-04-07T18:16:48.705Z,18.20
2023-04-07T18:19:18.202Z,18.50
2023-04-07T18:21:46.719Z,18.70
2023-04-07T18:24:16.593Z,21.20
2023-04-07T18:29:15.154Z,19.20
2023-04-07T18:31:43.906Z,18.90
2023-04-07T18:34:13.699Z,19.00
2023-04-07T18:36:43.253Z,18.10
2023-04-07T18:39:12.120Z,18.50
2023-04-07T18:41:44.886Z,19.40
2023-04-07T18:44:14.147Z,19.80
2023-04-07T18:46:43.147Z,18.20
2023-04-07T18:49:12.770Z,12.90
2023-04-07T18:51:44.869Z,16.60
2023-04-07T18:54:14.570Z,14.70
2023-04-07T18:56:43.740Z,16.20
2023-04-07T18:59:12.467Z,17.50
2023-04-07T19:01:43.131Z,16.20
2023-04-07T19:04:11.892Z,17.90
2023-04-07T19:06:40.842Z,41.20
2023-04-07T19:09:09.957Z,29.50
2023-04-07T19:11:38.724Z,21.10
2023-04-07T19:14:07.690Z,25.30
2023-04-07T19:16:37.547Z,20.60
2023-04-07T19:19:06.421Z,21.40
2023-04-07T19:21:35.274Z,21.20
2023-04-07T19:24:04.845Z,20.80
2023-04-07T19:26:35.314Z,18.70
2023-04-07T19:31:32.883Z,17.80
2023-04-07T19:34:01.649Z,16.10
2023-04-07T19:36:31.543Z,13.20
2023-04-07T19:39:00.346Z,12.90
2023-04-07T19:41:29.794Z,11.50
2023-04-07T19:43:58.660Z,10.90
2023-04-07T19:46:27.690Z,10.10
2023-04-07T19:48:56.659Z,21.40
2023-04-07T19:51:26.117Z,41.50
2023-04-07T19:53:55.626Z,16.70
2023-04-07T19:56:25.290Z,18.70
2023-04-07T19:58:53.741Z,19.00
2023-04-07T20:01:22.872Z,14.70
2023-04-07T20:03:51.432Z,14.20
2023-04-07T20:06:21.157Z,15.00
2023-04-07T20:08:50.817Z,15.40
2023-04-07T20:11:19.636Z,13.60
2023-04-07T20:13:49.367Z,11.80
2023-04-07T20:16:18.382Z,14.60
2023-04-07T20:18:47.899Z,10.90
2023-04-07T20:21:16.680Z,10.80
2023-04-07T20:23:46.795Z,27.20
2023-04-07T20:26:15.379Z,10.90
2023-04-07T20:28:43.802Z,11.10
2023-04-07T20:31:13.092Z,9.60
2023-04-07T20:33:41.921Z,11.80
2023-04-07T20:36:10.868Z,12.20
2023-04-07T20:38:44.031Z,11.80
2023-04-07T20:41:14.028Z,10.30
2023-04-07T20:43:43.352Z,9.70
2023-04-07T20:46:12.099Z,9.20
2023-04-07T20:48:41.007Z,10.60
2023-04-07T20:51:09.610Z,10.10
2023-04-07T20:53:38.355Z,12.20
2023-04-07T20:56:07.215Z,12.20
2023-04-07T20:58:36.951Z,12.20
2023-04-07T21:01:05.882Z,10.70
2023-04-07T21:03:36.266Z,12.10
2023-04-07T21:06:05.541Z,12.30
2023-04-07T21:08:34.373Z,6.20
2023-04-07T21:11:02.871Z,9.70
2023-04-07T21:13:32.245Z,13.40
2023-04-07T21:16:03.905Z,12.10
2023-04-07T21:18:33.463Z,10.00
2023-04-07T21:21:03.167Z,9.60
2023-04-07T21:23:32.258Z,9.90
2023-04-07T21:26:02.774Z,9.50
2023-04-07T21:31:00.158Z,8.60
2023-04-07T21:33:29.639Z,10.10
2023-04-07T21:36:00.355Z,10.10
2023-04-07T21:38:29.211Z,9.50
2023-04-07T21:40:58.051Z,9.70
2023-04-07T21:43:29.103Z,10.40
2023-04-07T21:45:57.686Z,10.30
2023-04-07T21:48:26.796Z,11.80
2023-04-07T21:50:55.246Z,11.30
2023-04-07T21:53:23.950Z,10.50
2023-04-07T21:55:53.112Z,11.00
2023-04-07T21:58:23.722Z,11.40
2023-04-07T22:00:52.771Z,11.20
2023-04-07T22:03:22.390Z,10.20
2023-04-07T22:05:51.804Z,9.40
2023-04-07T22:08:20.470Z,9.10
2023-04-07T22:10:49.328Z,9.70
2023-04-07T22:13:18.139Z,10.50
2023-04-07T22:15:46.975Z,9.20
2023-04-07T22:18:15.910Z,8.40
2023-04-07T22:20:45.632Z,9.10
2023-04-07T22:23:14.185Z,11.20
2023-04-07T22:25:42.799Z,8.60
2023-04-07T22:28:11.673Z,9.40
2023-04-07T22:30:40.399Z,8.50
2023-04-07T22:33:10.797Z,7.80
2023-04-07T22:35:39.467Z,8.00
2023-04-07T22:38:08.386Z,8.70
2023-04-07T22:40:37.300Z,8.20
2023-04-07T22:43:06.274Z,8.10
2023-04-07T22:45:36.095Z,7.80
2023-04-07T22:50:33.978Z,7.30
2023-04-07T22:53:02.866Z,5.70
2023-04-07T22:55:31.625Z,7.30
2023-04-07T22:58:01.043Z,7.70
2023-04-07T23:00:29.885Z,7.70
2023-04-07T23:02:58.578Z,8.00
2023-04-07T23:05:27.806Z,7.80
2023-04-07T23:07:56.934Z,7.50
2023-04-07T23:10:26.125Z,7.90
2023-04-07T23:12:55.187Z,6.70
2023-04-07T23:15:24.017Z,6.70
2023-04-07T23:17:52.868Z,6.40
2023-04-07T23:20:21.592Z,6.80
2023-04-07T23:22:51.112Z,6.90
2023-04-07T23:25:19.987Z,7.10
2023-04-07T23:27:48.451Z,6.90
2023-04-07T23:30:17.355Z,7.90
2023-04-07T23:32:46.480Z,7.90
2023-04-07T23:35:14.944Z,6.40
2023-04-07T23:37:43.994Z,6.00
2023-04-07T23:40:13.622Z,5.30
2023-04-07T23:42:42.140Z,5.10
2023-04-07T23:45:11.606Z,5.10
2023-04-07T23:47:40.200Z,5.70
2023-04-07T23:50:09.268Z,4.90
2023-04-07T23:52:38.314Z,4.90
2023-04-07T23:55:07.503Z,3.60
2023-04-07T23:57:36.483Z,5.00
